Time;durP1;ratioP1;P1;durP2;ratioP2;P2;SDS_P1;SDS_P2;PMS_P1;PMS_P2;Temp;Humidity;BMP_temperature;BMP_pressure;BME280_temperature;BME280_humidity;BME280_pressure;Samples;Min_cycle;Max_cycle;Signal;HPM_P1;HPM_P2
2021/06/23 00:01:39;;;;;;;28.80;19.40;;;13.90;99.90;;;;;;5093768;28;20032;-67
2021/06/23 00:04:04;;;;;;;26.15;19.50;;;13.90;99.90;;;;;;5093758;28;20431;-67
2021/06/23 00:06:30;;;;;;;28.50;19.17;;;13.80;99.90;;;;;;5094031;28;20415;-67
2021/06/23 00:08:56;;;;;;;31.25;20.02;;;13.80;99.90;;;;;;5093944;28;20085;-67
2021/06/23 00:11:21;;;;;;;29.33;20.25;;;13.80;99.90;;;;;;5093700;28;20039;-67
2021/06/23 00:13:49;;;;;;;35.78;20.25;;;13.80;99.90;;;;;;5093711;28;20028;-67
2021/06/23 00:16:14;;;;;;;32.28;19.98;;;13.80;99.90;;;;;;5093789;28;20077;-67
2021/06/23 00:18:40;;;;;;;27.10;19.15;;;13.80;99.90;;;;;;5093906;28;20465;-67
2021/06/23 00:21:06;;;;;;;34.40;20.90;;;13.80;99.90;;;;;;5093848;28;20073;-67
2021/06/23 00:23:37;;;;;;;38.65;20.80;;;13.70;99.90;;;;;;5092361;28;20024;-67
2021/06/23 00:26:02;;;;;;;33.38;19.55;;;13.80;99.90;;;;;;5093834;28;20117;-67
2021/06/23 00:28:30;;;;;;;32.70;18.40;;;13.80;99.90;;;;;;5093721;28;20066;-67
2021/06/23 00:30:56;;;;;;;27.40;18.35;;;13.80;99.90;;;;;;5092639;28;20104;-67
2021/06/23 00:33:26;;;;;;;30.98;19.27;;;13.80;99.90;;;;;;5093494;28;20046;-67
2021/06/23 00:35:52;;;;;;;30.80;18.00;;;13.80;99.90;;;;;;5093725;28;20023;-67
2021/06/23 00:38:18;;;;;;;34.15;17.98;;;13.80;99.90;;;;;;5093701;28;20024;-67
2021/06/23 00:40:44;;;;;;;30.33;18.13;;;13.80;99.90;;;;;;5093685;28;20031;-67
2021/06/23 00:43:10;;;;;;;25.85;16.77;;;13.80;99.90;;;;;;5093658;28;20028;-67
2021/06/23 00:45:37;;;;;;;29.60;18.10;;;13.80;99.90;;;;;;5093629;28;20039;-67
2021/06/23 00:48:08;;;;;;;29.75;18.17;;;13.80;99.90;;;;;;5093280;28;20020;-67
2021/06/23 00:50:34;;;;;;;26.17;16.60;;;13.80;99.90;;;;;;5091967;28;20389;-67
2021/06/23 00:53:00;;;;;;;35.05;18.88;;;13.80;99.90;;;;;;5093552;28;20047;-68
2021/06/23 00:55:26;;;;;;;28.45;16.77;;;13.80;99.90;;;;;;5093562;28;20055;-67
2021/06/23 00:57:54;;;;;;;31.42;18.17;;;13.80;99.90;;;;;;5096549;28;20017;-67
2021/06/23 01:00:24;;;;;;;28.63;16.83;;;13.80;99.90;;;;;;5096902;28;20035;-67
2021/06/23 01:02:50;;;;;;;28.23;17.67;;;13.70;99.90;;;;;;5096543;28;20064;-67
2021/06/23 01:05:16;;;;;;;32.42;16.88;;;13.70;99.90;;;;;;5097127;28;20028;-67
2021/06/23 01:07:42;;;;;;;32.00;17.02;;;13.70;99.90;;;;;;5096965;28;20059;-67
2021/06/23 01:10:09;;;;;;;27.33;16.55;;;13.70;99.90;;;;;;5096903;28;20032;-67
2021/06/23 01:13:15;;;;;;;28.02;16.25;;;13.80;99.90;;;;;;5096663;28;20031;-67
2021/06/23 01:15:41;;;;;;;27.35;15.93;;;13.80;99.90;;;;;;5096174;28;20016;-67
2021/06/23 01:18:09;;;;;;;28.42;16.38;;;13.70;99.90;;;;;;5096860;28;20016;-67
2021/06/23 01:20:41;;;;;;;27.15;16.30;;;13.80;99.90;;;;;;5096797;28;20031;-67
2021/06/23 01:23:07;;;;;;;29.60;16.77;;;13.70;99.90;;;;;;5096471;28;20016;-67
2021/06/23 01:25:32;;;;;;;26.15;16.65;;;13.70;99.90;;;;;;5096691;28;20102;-67
2021/06/23 01:27:58;;;;;;;28.48;17.20;;;13.70;99.90;;;;;;5096371;28;20089;-67
2021/06/23 01:30:24;;;;;;;32.97;16.10;;;13.70;99.90;;;;;;5096543;28;20035;-67
2021/06/23 01:32:49;;;;;;;26.75;16.17;;;13.70;99.90;;;;;;5096555;28;20020;-67
2021/06/23 01:35:15;;;;;;;31.23;16.75;;;13.70;99.90;;;;;;5095087;28;20030;-67
2021/06/23 01:37:42;;;;;;;26.33;16.13;;;13.70;99.90;;;;;;5095920;28;20020;-67
2021/06/23 01:40:08;;;;;;;28.92;16.77;;;13.70;99.90;;;;;;5094601;28;20028;-66
2021/06/23 01:42:34;;;;;;;27.40;17.02;;;13.70;99.90;;;;;;5096117;28;20385;-67
2021/06/23 01:45:01;;;;;;;30.85;17.27;;;13.70;99.90;;;;;;5095999;28;20024;-67
2021/06/23 01:47:26;;;;;;;31.88;17.15;;;13.60;99.90;;;;;;5096259;28;20442;-67
2021/06/23 01:49:52;;;;;;;28.13;16.95;;;13.60;99.90;;;;;;5095472;28;20135;-67
2021/06/23 01:52:18;;;;;;;28.33;17.20;;;13.60;99.90;;;;;;5096200;28;20115;-67
2021/06/23 01:54:44;;;;;;;28.60;16.75;;;13.60;99.90;;;;;;5094905;28;20024;-67
2021/06/23 01:57:10;;;;;;;30.60;17.02;;;13.60;99.90;;;;;;5096072;28;20024;-67
2021/06/23 01:59:38;;;;;;;29.30;17.02;;;13.60;99.90;;;;;;5095799;28;20020;-67
2021/06/23 02:02:17;;;;;;;32.20;17.80;;;13.60;99.90;;;;;;5095992;28;20027;-66
2021/06/23 02:05:04;;;;;;;26.60;16.60;;;13.60;99.90;;;;;;5095708;28;20028;-67
2021/06/23 02:07:54;;;;;;;33.13;16.27;;;13.60;99.90;;;;;;5094062;28;20028;-67
2021/06/23 02:10:45;;;;;;;33.50;16.52;;;13.60;99.90;;;;;;5095745;28;20456;-67
2021/06/23 02:13:44;;;;;;;29.08;17.17;;;13.50;99.90;;;;;;5095692;28;20020;-67
2021/06/23 02:16:12;;;;;;;27.40;14.82;;;13.60;99.90;;;;;;5095501;28;20027;-67
2021/06/23 02:18:38;;;;;;;24.00;15.07;;;13.50;99.90;;;;;;5095686;28;20016;-67
2021/06/23 02:21:05;;;;;;;27.65;16.75;;;13.50;99.90;;;;;;5095658;28;20016;-67
2021/06/23 02:23:36;;;;;;;24.60;15.05;;;13.40;99.90;;;;;;5095556;28;20070;-67
2021/06/23 02:26:02;;;;;;;25.70;14.77;;;13.40;99.90;;;;;;5095527;28;20346;-67
2021/06/23 02:28:28;;;;;;;28.27;15.05;;;13.40;99.90;;;;;;5095151;28;20054;-67
2021/06/23 02:30:54;;;;;;;27.20;15.32;;;13.40;99.90;;;;;;5095419;28;20115;-67
2021/06/23 02:33:20;;;;;;;26.30;14.90;;;13.40;99.90;;;;;;5095366;28;20469;-67
2021/06/23 02:35:48;;;;;;;25.15;14.80;;;13.40;99.90;;;;;;5094212;28;20048;-67
2021/06/23 02:38:13;;;;;;;26.25;15.10;;;13.40;99.90;;;;;;5095289;28;20013;-67
2021/06/23 02:40:39;;;;;;;31.58;15.60;;;13.30;99.90;;;;;;5095222;28;20077;-67
2021/06/23 02:43:06;;;;;;;26.05;15.52;;;13.30;99.90;;;;;;5095218;28;20047;-67
2021/06/23 02:45:31;;;;;;;31.35;15.43;;;13.30;99.90;;;;;;5095166;28;20051;-67
2021/06/23 02:47:57;;;;;;;26.70;15.35;;;13.30;99.90;;;;;;5094324;28;20526;-67
2021/06/23 02:50:23;;;;;;;27.83;15.35;;;13.30;99.90;;;;;;5094989;28;20028;-67
2021/06/23 02:52:49;;;;;;;24.70;14.50;;;13.30;99.90;;;;;;5095020;28;20465;-67
2021/06/23 02:55:22;;;;;;;27.42;14.73;;;13.30;99.90;;;;;;5095006;28;20028;-67
2021/06/23 02:57:49;;;;;;;25.15;14.32;;;13.20;99.90;;;;;;5094708;28;20032;-67
2021/06/23 03:00:15;;;;;;;25.85;14.85;;;13.30;99.90;;;;;;5094926;28;20031;-67
2021/06/23 03:02:40;;;;;;;27.92;14.90;;;13.30;99.90;;;;;;5094820;28;20081;-66
2021/06/23 03:05:07;;;;;;;31.90;15.00;;;13.20;99.90;;;;;;5094838;28;20031;-67
2021/06/23 03:07:32;;;;;;;27.40;14.13;;;13.30;99.90;;;;;;5094494;28;20024;-67
2021/06/23 03:10:11;;;;;;;30.83;15.00;;;13.30;99.90;;;;;;5094616;28;20036;-67
2021/06/23 03:12:37;;;;;;;33.47;15.23;;;13.20;99.90;;;;;;5094689;28;20404;-67
2021/06/23 03:15:04;;;;;;;24.52;14.27;;;13.20;99.90;;;;;;5094657;28;20032;-67
2021/06/23 03:17:30;;;;;;;26.77;14.10;;;13.20;99.90;;;;;;5094571;28;20023;-67
2021/06/23 03:19:56;;;;;;;23.13;14.00;;;13.20;99.90;;;;;;5093613;28;20028;-67
2021/06/23 03:22:21;;;;;;;22.95;15.18;;;13.20;99.90;;;;;;5094540;28;20032;-67
2021/06/23 03:24:47;;;;;;;34.63;14.35;;;13.20;99.90;;;;;;5094220;28;20028;-67
2021/06/23 03:27:14;;;;;;;31.52;14.80;;;13.30;99.90;;;;;;5094167;28;20127;-67
2021/06/23 03:29:40;;;;;;;29.13;14.68;;;13.20;99.90;;;;;;5093801;28;20095;-66
2021/06/23 03:32:09;;;;;;;25.35;13.95;;;13.20;99.90;;;;;;5094116;28;20074;-67
2021/06/23 03:34:35;;;;;;;29.70;15.75;;;13.20;99.90;;;;;;5094329;28;20123;-67
2021/06/23 03:37:01;;;;;;;26.52;14.32;;;13.20;99.90;;;;;;5094309;28;20012;-67
2021/06/23 03:39:27;;;;;;;25.45;14.45;;;13.20;99.90;;;;;;5093748;28;20102;-67
2021/06/23 03:41:52;;;;;;;29.33;13.68;;;13.20;99.90;;;;;;5093972;28;20024;-67
2021/06/23 03:44:18;;;;;;;28.27;13.45;;;13.20;99.90;;;;;;5094241;28;20085;-67
2021/06/23 03:46:43;;;;;;;27.02;13.65;;;13.20;99.90;;;;;;5094230;28;20492;-67
2021/06/23 03:49:09;;;;;;;29.10;13.43;;;13.20;99.90;;;;;;5093642;28;20101;-67
2021/06/23 03:51:35;;;;;;;26.08;13.10;;;13.20;99.90;;;;;;5092353;28;20034;-67
2021/06/23 03:54:00;;;;;;;23.77;12.75;;;13.20;99.90;;;;;;5094151;28;20021;-67
2021/06/23 03:56:26;;;;;;;26.92;12.98;;;13.20;99.90;;;;;;5093525;28;20020;-67
2021/06/23 03:58:52;;;;;;;21.73;12.65;;;13.20;99.90;;;;;;5093841;28;20024;-67
2021/06/23 04:01:17;;;;;;;22.95;12.35;;;13.20;99.90;;;;;;5094072;28;20043;-67
2021/06/23 04:03:43;;;;;;;24.13;11.73;;;13.20;99.90;;;;;;5093827;28;20036;-67
2021/06/23 04:06:08;;;;;;;24.88;11.73;;;13.30;99.90;;;;;;5092567;28;20043;-67
2021/06/23 04:08:34;;;;;;;24.45;11.60;;;13.30;99.90;;;;;;5093676;28;20157;-67
2021/06/23 04:11:00;;;;;;;24.20;11.52;;;13.30;99.90;;;;;;5093972;28;20055;-67
2021/06/23 04:13:25;;;;;;;21.80;10.27;;;13.30;99.90;;;;;;5093399;28;20028;-66
2021/06/23 04:15:51;;;;;;;20.48;10.60;;;13.30;99.90;;;;;;5093915;28;20377;-67
2021/06/23 04:18:16;;;;;;;22.80;11.32;;;13.30;99.90;;;;;;5093899;28;20077;-67
2021/06/23 04:20:42;;;;;;;24.85;10.23;;;13.20;99.90;;;;;;5093366;28;20077;-67
2021/06/23 04:23:07;;;;;;;20.98;10.30;;;13.20;99.90;;;;;;5093857;28;20042;-67
2021/06/23 04:25:33;;;;;;;26.73;10.30;;;13.30;99.90;;;;;;5093870;28;20073;-67
2021/06/23 04:27:59;;;;;;;21.75;10.15;;;13.30;99.90;;;;;;5093825;28;20469;-67
2021/06/23 04:30:25;;;;;;;17.95;10.38;;;13.30;99.90;;;;;;5093712;28;20107;-67
2021/06/23 04:32:50;;;;;;;19.48;10.13;;;13.40;99.90;;;;;;5097241;28;20453;-67
2021/06/23 04:35:15;;;;;;;21.70;9.57;;;13.30;99.90;;;;;;5097481;28;20021;-66
2021/06/23 04:37:43;;;;;;;23.58;10.13;;;13.30;99.90;;;;;;5097413;28;20047;-67
2021/06/23 04:40:12;;;;;;;26.52;9.82;;;13.30;99.90;;;;;;5097249;28;20366;-67
2021/06/23 04:42:39;;;;;;;21.23;9.60;;;13.30;99.90;;;;;;5097562;28;20195;-67
2021/06/23 04:45:07;;;;;;;20.02;9.05;;;13.40;99.90;;;;;;5097239;28;20096;-67
2021/06/23 04:47:34;;;;;;;20.13;9.63;;;13.40;99.90;;;;;;5097141;28;20064;-67
2021/06/23 04:49:59;;;;;;;20.70;10.02;;;13.40;99.90;;;;;;5096534;28;20043;-66
2021/06/23 04:52:25;;;;;;;23.83;9.55;;;13.40;99.90;;;;;;5097327;28;20032;-67
2021/06/23 04:54:50;;;;;;;18.52;9.00;;;13.40;99.90;;;;;;5096765;28;20092;-66
2021/06/23 04:57:17;;;;;;;24.48;9.45;;;13.50;99.90;;;;;;5096106;28;20369;-67
2021/06/23 04:59:42;;;;;;;23.17;9.38;;;13.40;99.90;;;;;;5096946;28;20021;-67
2021/06/23 05:02:08;;;;;;;20.67;9.27;;;13.40;99.90;;;;;;5096939;28;20028;-67
2021/06/23 05:04:34;;;;;;;17.30;8.77;;;13.40;99.90;;;;;;5097137;28;20025;-67
2021/06/23 05:07:03;;;;;;;21.73;10.23;;;13.40;99.90;;;;;;5096783;28;20027;-67
2021/06/23 05:09:29;;;;;;;24.55;9.57;;;13.40;99.90;;;;;;5096640;28;20032;-67
2021/06/23 05:11:54;;;;;;;21.13;9.18;;;13.30;99.90;;;;;;5096715;28;20452;-67
2021/06/23 05:14:20;;;;;;;16.52;9.68;;;13.40;99.90;;;;;;5096973;28;20064;-67
2021/06/23 05:16:48;;;;;;;25.15;10.20;;;13.50;99.90;;;;;;5096378;28;20103;-66
2021/06/23 05:19:14;;;;;;;21.88;10.02;;;13.50;99.90;;;;;;5095720;28;20020;-66
2021/06/23 05:21:40;;;;;;;24.65;9.90;;;13.60;99.90;;;;;;5096753;28;20024;-67
2021/06/23 05:24:06;;;;;;;19.90;9.13;;;13.60;99.90;;;;;;5096509;28;20109;-67
2021/06/23 05:26:32;;;;;;;21.70;9.90;;;13.70;99.90;;;;;;5096711;28;20028;-67
2021/06/23 05:28:58;;;;;;;21.35;9.35;;;13.80;99.90;;;;;;5096314;28;20381;-68
2021/06/23 05:31:23;;;;;;;21.42;8.90;;;13.90;99.90;;;;;;5095171;28;20028;-67
2021/06/23 05:33:50;;;;;;;20.30;8.88;;;13.90;99.90;;;;;;5096563;28;20023;-68
2021/06/23 05:36:15;;;;;;;17.60;9.48;;;14.00;99.90;;;;;;5096499;28;20028;-67
2021/06/23 05:38:41;;;;;;;20.75;9.40;;;13.90;99.90;;;;;;5096448;28;20420;-67
2021/06/23 05:41:06;;;;;;;24.77;9.25;;;14.00;99.90;;;;;;5096400;28;20098;-67
2021/06/23 05:43:32;;;;;;;22.23;9.57;;;14.20;99.90;;;;;;5095603;28;20038;-67
2021/06/23 05:45:58;;;;;;;17.38;8.65;;;14.20;99.90;;;;;;5096190;28;20031;-67
2021/06/23 05:48:23;;;;;;;21.35;9.07;;;14.20;99.90;;;;;;5096119;28;20061;-68
2021/06/23 05:50:49;;;;;;;21.83;8.48;;;14.30;99.90;;;;;;5096131;28;20032;-67
2021/06/23 05:53:15;;;;;;;26.80;9.52;;;14.30;99.90;;;;;;5096039;28;20031;-67
2021/06/23 05:55:40;;;;;;;22.05;9.15;;;14.30;99.90;;;;;;5095430;28;20031;-67
2021/06/23 05:58:07;;;;;;;19.23;8.38;;;14.30;99.90;;;;;;5095771;28;20043;-67
2021/06/23 06:00:35;;;;;;;20.27;8.60;;;14.40;99.90;;;;;;5096004;28;20369;-67
2021/06/23 06:03:00;;;;;;;21.63;9.15;;;14.40;99.90;;;;;;5095675;28;20105;-68
2021/06/23 06:05:26;;;;;;;16.00;8.18;;;14.60;99.90;;;;;;5095537;28;20412;-68
2021/06/23 06:07:51;;;;;;;18.35;8.65;;;14.60;99.90;;;;;;5095546;28;20028;-68
2021/06/23 06:10:17;;;;;;;17.80;7.93;;;14.60;99.90;;;;;;5095687;28;20365;-67
2021/06/23 06:12:43;;;;;;;16.73;7.90;;;14.70;99.90;;;;;;5095654;28;20028;-68
2021/06/23 06:15:09;;;;;;;20.77;8.48;;;14.80;99.90;;;;;;5095642;28;20020;-67
2021/06/23 06:17:35;;;;;;;19.95;8.07;;;14.70;99.90;;;;;;5094205;28;20369;-67
2021/06/23 06:20:02;;;;;;;18.63;9.25;;;14.70;99.90;;;;;;5086496;28;20028;-67
2021/06/23 06:22:27;;;;;;;18.50;8.48;;;14.80;99.90;;;;;;5075054;28;20020;-67
2021/06/23 06:24:53;;;;;;;18.05;8.77;;;14.90;99.90;;;;;;5076037;28;20074;-67
2021/06/23 06:27:20;;;;;;;16.70;8.45;;;15.20;99.90;;;;;;5074203;28;20024;-67
2021/06/23 06:29:45;;;;;;;18.17;8.57;;;15.10;99.90;;;;;;5088499;28;20114;-67
2021/06/23 06:32:11;;;;;;;18.95;8.35;;;15.10;99.90;;;;;;5079476;28;20481;-67
2021/06/23 06:34:36;;;;;;;24.55;8.93;;;15.00;99.90;;;;;;5091298;28;20035;-67
2021/06/23 06:37:02;;;;;;;18.50;8.15;;;14.90;99.90;;;;;;5094274;28;20032;-68
2021/06/23 06:39:27;;;;;;;17.15;8.00;;;15.00;99.90;;;;;;5093990;28;20036;-68
2021/06/23 06:41:53;;;;;;;15.35;8.15;;;15.10;99.90;;;;;;5078869;28;20024;-68
2021/06/23 06:44:21;;;;;;;19.23;8.23;;;15.00;99.90;;;;;;5089665;28;20043;-67
2021/06/23 06:46:46;;;;;;;17.80;7.63;;;15.00;99.90;;;;;;5087316;28;20089;-67
2021/06/23 06:49:12;;;;;;;17.75;8.15;;;15.10;99.90;;;;;;5085776;28;20047;-67
2021/06/23 06:51:38;;;;;;;17.50;8.05;;;15.20;99.90;;;;;;5079649;28;20032;-67
2021/06/23 06:54:04;;;;;;;23.13;8.35;;;15.50;99.90;;;;;;5080333;28;20028;-67
2021/06/23 06:56:29;;;;;;;21.55;8.00;;;15.60;99.90;;;;;;5080440;28;20107;-67
2021/06/23 06:58:55;;;;;;;15.50;7.90;;;15.90;99.90;;;;;;5083230;28;20466;-67
2021/06/23 07:01:20;;;;;;;13.27;7.28;;;15.90;99.90;;;;;;5091275;28;20439;-65
2021/06/23 07:03:46;;;;;;;17.42;7.32;;;15.70;99.90;;;;;;5084046;28;20358;-65
2021/06/23 07:06:11;;;;;;;17.08;7.28;;;15.80;99.90;;;;;;5073782;28;20035;-66
2021/06/23 07:08:39;;;;;;;18.95;7.50;;;16.10;99.90;;;;;;5074061;28;20065;-65
2021/06/23 07:11:05;;;;;;;17.13;7.28;;;16.40;99.90;;;;;;5073022;28;20394;-68
2021/06/23 07:13:30;;;;;;;17.27;6.88;;;16.70;99.90;;;;;;5087195;28;20020;-68
2021/06/23 07:15:56;;;;;;;24.40;7.97;;;17.40;99.90;;;;;;5089424;28;20077;-68
2021/06/23 07:18:21;;;;;;;19.52;6.43;;;17.90;99.90;;;;;;5075187;28;20044;-68
2021/06/23 07:20:47;;;;;;;16.38;6.43;;;18.70;99.90;;;;;;5082249;28;20028;-68
2021/06/23 07:23:12;;;;;;;12.90;6.38;;;19.00;99.90;;;;;;5093762;28;20032;-68
2021/06/23 07:25:38;;;;;;;14.57;6.07;;;18.90;99.90;;;;;;5091732;28;20441;-68
2021/06/23 07:28:04;;;;;;;15.23;6.75;;;18.50;99.90;;;;;;5092238;28;20370;-68
2021/06/23 07:30:30;;;;;;;15.07;6.78;;;18.60;99.90;;;;;;5091188;28;20405;-68
2021/06/23 07:32:59;;;;;;;15.50;6.78;;;18.60;99.90;;;;;;5093724;28;20016;-68
2021/06/23 07:38:14;;;;;;;16.65;6.97;;;18.70;99.90;;;;;;5073238;28;20051;-68
2021/06/23 07:41:14;;;;;;;17.02;6.75;;;19.40;99.90;;;;;;5074287;28;20132;-68
2021/06/23 07:43:25;;;;;;;11.82;5.47;;;20.60;99.90;;;;;;5073030;28;20080;-68
2021/06/23 07:45:55;;;;;;;14.52;6.35;;;20.60;99.90;;;;;;5090613;28;20028;-66
2021/06/23 07:48:22;;;;;;;18.92;6.28;;;20.30;99.90;;;;;;5093241;28;20032;-69
2021/06/23 07:50:54;;;;;;;11.70;5.60;;;20.20;99.90;;;;;;5074269;28;20064;-67
2021/06/23 07:53:27;;;;;;;15.60;6.05;;;20.70;99.90;;;;;;5073037;28;20481;-67
2021/06/23 07:56:07;;;;;;;17.17;5.65;;;20.10;99.90;;;;;;5080887;28;20027;-68
2021/06/23 08:08:10;;;;;;;15.13;6.20;;;22.40;99.90;;;;;;5078876;28;20020;-69
2021/06/23 08:09:40;;;;;;;9.52;5.28;;;23.10;99.90;;;;;;5076832;28;20056;-69
2021/06/23 08:12:17;;;;;;;16.55;5.95;;;23.40;99.90;;;;;;5078189;28;20075;-68
2021/06/23 08:14:43;;;;;;;10.60;5.53;;;22.50;99.90;;;;;;5077955;28;20028;-69
2021/06/23 08:17:09;;;;;;;10.63;5.68;;;23.20;99.90;;;;;;5084565;28;20036;-69
2021/06/23 08:19:35;;;;;;;13.73;5.63;;;22.90;99.90;;;;;;5096996;28;20154;-69
2021/06/23 08:22:00;;;;;;;14.50;5.70;;;22.40;99.90;;;;;;5091517;28;20056;-68
2021/06/23 08:24:26;;;;;;;11.00;5.82;;;22.60;99.90;;;;;;5086905;28;20036;-68
2021/06/23 08:26:51;;;;;;;11.75;5.55;;;23.20;99.90;;;;;;5078968;28;20507;-68
2021/06/23 08:29:17;;;;;;;14.00;6.18;;;22.80;99.90;;;;;;5075234;28;20024;-68
2021/06/23 08:31:43;;;;;;;11.70;5.63;;;22.40;99.90;;;;;;5079957;28;21363;-67
2021/06/23 08:34:08;;;;;;;13.15;6.55;;;22.50;99.90;;;;;;5081512;28;20089;-68
2021/06/23 08:36:34;;;;;;;12.52;6.25;;;22.50;99.90;;;;;;5077095;28;20508;-68
2021/06/23 08:38:59;;;;;;;13.90;6.60;;;22.30;99.90;;;;;;5080217;28;20031;-68
2021/06/23 08:41:26;;;;;;;14.13;6.93;;;22.00;99.90;;;;;;5083770;28;20032;-68
2021/06/23 08:43:55;;;;;;;12.77;6.82;;;22.70;99.90;;;;;;5085540;28;20081;-68
2021/06/23 08:46:20;;;;;;;13.13;6.22;;;22.50;99.90;;;;;;5078768;28;20470;-68
2021/06/23 08:48:46;;;;;;;12.20;6.72;;;23.60;99.90;;;;;;5074840;28;20119;-68
2021/06/23 08:51:13;;;;;;;15.63;6.78;;;23.10;99.90;;;;;;5076456;28;20025;-68
2021/06/23 08:53:38;;;;;;;16.63;7.03;;;23.40;99.90;;;;;;5084216;28;20024;-68
2021/06/23 08:56:05;;;;;;;13.10;6.75;;;23.70;99.90;;;;;;5096156;28;20077;-67
2021/06/23 08:58:31;;;;;;;19.08;6.95;;;23.30;99.90;;;;;;5081089;28;20416;-69
2021/06/23 09:00:57;;;;;;;16.75;7.00;;;23.40;99.90;;;;;;5085928;28;20024;-69
2021/06/23 09:03:23;;;;;;;15.18;7.18;;;22.60;99.90;;;;;;5095942;28;20038;-67
2021/06/23 09:05:52;;;;;;;15.20;7.00;;;23.10;99.90;;;;;;5087748;28;20148;-70
2021/06/23 09:08:36;;;;;;;16.77;6.70;;;23.20;99.90;;;;;;5075615;28;20090;-70
2021/06/23 09:11:21;;;;;;;12.18;6.63;;;23.50;99.90;;;;;;5076646;28;20032;-69
2021/06/23 09:13:46;;;;;;;15.40;7.53;;;22.70;99.90;;;;;;5075220;28;20021;-69
2021/06/23 09:16:12;;;;;;;13.52;7.57;;;21.70;99.90;;;;;;5086217;28;20481;-68
2021/06/23 09:18:41;;;;;;;17.08;7.50;;;22.70;99.90;;;;;;5076623;28;20390;-69
2021/06/23 09:21:15;;;;;;;16.15;8.00;;;23.50;99.90;;;;;;5091821;28;20028;-67
2021/06/23 09:23:48;;;;;;;15.52;7.57;;;23.10;99.90;;;;;;5094826;28;20024;-69
2021/06/23 09:26:19;;;;;;;18.13;6.93;;;23.10;99.90;;;;;;5095361;28;20032;-69
2021/06/23 09:29:03;;;;;;;16.77;7.13;;;23.90;99.90;;;;;;5089550;28;20031;-69
2021/06/23 09:31:51;;;;;;;16.63;7.35;;;24.00;99.90;;;;;;5094164;28;20099;-70
2021/06/23 09:34:22;;;;;;;13.45;6.40;;;24.40;99.90;;;;;;5083936;28;20035;-69
2021/06/23 09:36:48;;;;;;;13.95;6.15;;;24.10;99.90;;;;;;5073938;28;20023;-69
2021/06/23 09:39:23;;;;;;;20.23;7.50;;;23.20;99.90;;;;;;5083213;28;20028;-69
2021/06/23 09:41:50;;;;;;;12.80;6.82;;;23.00;99.90;;;;;;5075315;28;20572;-69
2021/06/23 09:44:16;;;;;;;12.73;6.97;;;22.80;99.90;;;;;;5080745;28;20024;-69
2021/06/23 09:46:44;;;;;;;17.10;7.10;;;22.70;99.90;;;;;;5074823;28;20039;-68
2021/06/23 09:49:17;;;;;;;15.13;8.02;;;22.80;99.90;;;;;;5081873;28;20040;-69
2021/06/23 09:51:53;;;;;;;24.52;8.68;;;22.10;99.90;;;;;;5095545;28;20021;-69
2021/06/23 09:54:22;;;;;;;13.32;7.22;;;22.50;99.90;;;;;;5093473;28;20064;-69
2021/06/23 09:56:48;;;;;;;17.23;7.32;;;22.60;99.90;;;;;;5095190;28;20045;-69
2021/06/23 09:59:39;;;;;;;18.95;7.93;;;22.20;99.90;;;;;;5087793;28;20021;-68
2021/06/23 10:02:25;;;;;;;16.50;8.63;;;22.00;99.90;;;;;;5079336;28;20051;-69
2021/06/23 10:04:54;;;;;;;16.20;8.60;;;21.90;99.90;;;;;;5076618;28;20162;-69
2021/06/23 10:07:43;;;;;;;12.85;7.70;;;21.90;99.90;;;;;;5072716;28;20032;-69
2021/06/23 10:10:11;;;;;;;12.85;7.32;;;22.00;99.90;;;;;;5080656;28;20027;-68
2021/06/23 10:12:37;;;;;;;13.73;7.38;;;21.50;99.90;;;;;;5094559;28;20024;-69
2021/06/23 10:15:03;;;;;;;15.88;7.63;;;21.40;99.90;;;;;;5093105;28;20028;-69
2021/06/23 10:17:31;;;;;;;16.27;7.75;;;21.70;99.90;;;;;;5094885;28;20032;-69
2021/06/23 10:19:57;;;;;;;17.23;8.45;;;22.10;99.90;;;;;;5095081;28;20024;-69
2021/06/23 10:22:23;;;;;;;14.35;7.75;;;21.80;99.90;;;;;;5085336;28;20026;-69
2021/06/23 10:24:51;;;;;;;19.95;8.70;;;21.20;99.90;;;;;;5093670;28;20028;-69
2021/06/23 10:27:19;;;;;;;17.00;7.05;;;21.40;99.90;;;;;;5094481;28;20031;-69
2021/06/23 10:29:50;;;;;;;15.20;8.45;;;21.70;99.90;;;;;;5090063;28;20036;-69
2021/06/23 10:32:16;;;;;;;19.45;9.50;;;21.20;99.90;;;;;;5094245;28;20019;-68
2021/06/23 10:34:42;;;;;;;12.68;7.90;;;20.80;99.90;;;;;;5081489;28;20024;-68
2021/06/23 10:37:08;;;;;;;18.00;7.45;;;21.20;99.90;;;;;;5079075;28;20080;-69
2021/06/23 10:39:36;;;;;;;19.80;8.23;;;21.90;99.90;;;;;;5092603;28;20063;-68
2021/06/23 10:42:05;;;;;;;16.48;8.32;;;21.90;99.90;;;;;;5092431;28;20020;-68
2021/06/23 10:44:36;;;;;;;15.63;8.00;;;21.50;99.90;;;;;;5092992;28;20477;-69
2021/06/23 10:47:07;;;;;;;12.80;7.57;;;22.10;99.90;;;;;;5086003;28;20033;-69
2021/06/23 10:49:50;;;;;;;12.88;8.15;;;22.50;99.90;;;;;;5085130;28;20040;-68
2021/06/23 10:52:30;;;;;;;16.25;8.52;;;21.90;99.90;;;;;;5092280;28;20024;-69
2021/06/23 10:54:58;;;;;;;16.13;9.52;;;21.60;99.90;;;;;;5083026;28;20078;-69
2021/06/23 10:57:42;;;;;;;19.17;9.40;;;21.20;99.90;;;;;;5080737;28;20104;-69
2021/06/23 11:03:15;;;;;;;16.08;8.77;;;21.20;99.90;;;;;;5058919;28;20400;-68
2021/06/23 11:08:37;;;;;;;17.80;9.20;;;20.80;99.90;;;;;;5061688;28;20392;-68
2021/06/23 11:11:06;;;;;;;18.73;8.43;;;21.00;99.90;;;;;;5049873;28;20108;-69
2021/06/23 11:13:34;;;;;;;15.65;8.63;;;21.60;99.90;;;;;;5048560;28;20025;-68
2021/06/23 11:16:00;;;;;;;16.02;9.25;;;21.30;99.90;;;;;;5048036;28;20064;-68
2021/06/23 11:18:35;;;;;;;14.75;8.43;;;21.00;99.90;;;;;;5048483;28;20049;-69
2021/06/23 11:21:12;;;;;;;13.85;8.40;;;20.90;99.90;;;;;;5048014;28;20025;-68
2021/06/23 11:23:47;;;;;;;15.73;9.98;;;21.20;99.90;;;;;;5048361;28;20488;-69
2021/06/23 11:29:21;;;;;;;16.20;10.35;;;21.20;99.90;;;;;;5068729;28;20440;-68
2021/06/23 11:31:50;;;;;;;15.32;9.93;;;21.40;99.90;;;;;;5051782;28;20475;-68
2021/06/23 11:37:17;;;;;;;15.05;10.50;;;22.00;99.90;;;;;;5110834;27;20300;-70
2021/06/23 11:39:43;;;;;;;18.92;11.50;;;21.70;99.90;;;;;;5108619;28;20491;-69
2021/06/23 11:42:10;;;;;;;20.45;12.27;;;21.40;99.90;;;;;;5090404;28;20028;-70
2021/06/23 11:44:38;;;;;;;17.92;10.10;;;21.40;99.90;;;;;;5090571;28;20099;-70
2021/06/23 11:47:04;;;;;;;18.20;10.60;;;21.40;99.90;;;;;;5108758;28;20111;-70
2021/06/23 11:49:30;;;;;;;21.27;9.98;;;21.50;99.90;;;;;;5110594;28;20020;-69
2021/06/23 11:51:58;;;;;;;17.55;11.20;;;21.50;99.90;;;;;;5107476;28;20032;-69
2021/06/23 11:54:24;;;;;;;16.17;10.15;;;21.30;99.90;;;;;;5088702;28;20025;-69
2021/06/23 11:56:49;;;;;;;17.40;10.02;;;21.20;99.90;;;;;;5105967;28;20077;-70
2021/06/23 11:59:15;;;;;;;19.25;9.93;;;21.20;99.90;;;;;;5110248;28;20169;-69
2021/06/23 12:01:40;;;;;;;19.20;10.55;;;21.30;99.90;;;;;;5091190;28;20027;-69
2021/06/23 12:04:06;;;;;;;14.85;9.48;;;21.00;99.90;;;;;;5108913;28;20026;-70
2021/06/23 12:06:32;;;;;;;16.50;9.63;;;21.20;99.90;;;;;;5096426;28;20040;-69
2021/06/23 12:08:58;;;;;;;20.95;10.77;;;21.30;99.90;;;;;;5091095;28;20029;-70
2021/06/23 12:11:23;;;;;;;16.95;11.38;;;21.20;99.90;;;;;;5097612;28;20115;-70
2021/06/23 12:13:49;;;;;;;18.00;11.13;;;21.10;99.90;;;;;;5110160;28;20026;-69
2021/06/23 12:16:14;;;;;;;16.33;10.25;;;21.20;99.90;;;;;;5094125;28;20504;-70
2021/06/23 12:18:40;;;;;;;16.80;10.70;;;21.60;99.90;;;;;;5107765;28;20099;-69
2021/06/23 12:21:06;;;;;;;17.52;10.68;;;21.80;99.90;;;;;;5108170;28;20031;-70
2021/06/23 12:23:32;;;;;;;17.80;10.07;;;21.70;99.90;;;;;;5108367;28;20405;-70
2021/06/23 12:25:59;;;;;;;19.75;10.25;;;21.50;99.90;;;;;;5104213;28;20165;-69
2021/06/23 12:28:25;;;;;;;16.95;10.55;;;21.70;99.90;;;;;;5102261;28;20024;-70
2021/06/23 12:30:50;;;;;;;17.98;10.85;;;21.80;99.90;;;;;;5088271;28;20481;-70
2021/06/23 12:33:16;;;;;;;18.13;11.30;;;21.60;99.90;;;;;;5095255;28;20130;-70
2021/06/23 12:35:44;;;;;;;17.42;10.45;;;21.60;99.90;;;;;;5091561;28;20040;-70
2021/06/23 12:38:14;;;;;;;14.65;9.98;;;21.60;99.90;;;;;;5103206;28;20025;-69
2021/06/23 12:40:40;;;;;;;18.55;11.50;;;21.70;99.90;;;;;;5087847;28;20028;-70
2021/06/23 12:43:10;;;;;;;22.33;11.00;;;21.90;99.90;;;;;;5089050;28;20040;-69
2021/06/23 12:45:36;;;;;;;19.25;11.15;;;21.40;99.90;;;;;;5095264;28;20024;-69
2021/06/23 12:48:03;;;;;;;15.48;10.98;;;21.20;99.90;;;;;;5078321;28;20031;-67
2021/06/23 12:50:29;;;;;;;18.13;10.73;;;21.60;99.90;;;;;;5078100;28;20398;-68
2021/06/23 12:52:54;;;;;;;14.80;10.48;;;21.80;99.90;;;;;;5095758;28;20031;-68
2021/06/23 12:55:20;;;;;;;21.27;10.30;;;22.10;99.90;;;;;;5110513;27;20398;-68
2021/06/23 12:57:46;;;;;;;14.32;11.27;;;22.10;99.90;;;;;;5073996;28;20121;-68
2021/06/23 13:00:12;;;;;;;19.70;11.60;;;22.10;99.90;;;;;;5075769;28;20102;-68